Rozet, Wyoming
Current Conditions -  °F | °C
As of 11:53 AM on Saturday 20 Dec 2014 (Local Time) from KGCC Reporting Station
Clear Clear  
Wind Chill: 37°   Ceiling: Unl
Heat Index: 42°   Visibility: 10mi
Dew Point: 26°   Wind: 8mph
Humidity: 53%   Direction: 220°SW
Pressure: 29.92"   Gusts: NA
Location:  44.28°N, 105.21°W
Report Text: KGCC 201853Z AUTO 22007KT 10SM CLR 06/M03 A2992 RMK AO2 SLP142 T00561033 TSNO
Loading
Personal Weather Stations






























Interactive Weather Map New forecast layout! Learn more

10-Day Weather Forecast

Advertisements
Track Severe Weather on mobile